sensor_id;sensor_type;location;lat;lon;timestamp;pressure;altitude;pressure_sealevel;temperature;humidity
2401;BME280;1211;43.200;27.914;2023-02-18T00:00:16;99245.88;;;-7.87;nan
2401;BME280;1211;43.200;27.914;2023-02-18T00:02:45;99600.91;;;-5.73;nan
2401;BME280;1211;43.200;27.914;2023-02-18T00:05:12;99411.03;;;-6.79;nan
2401;BME280;1211;43.200;27.914;2023-02-18T00:07:39;99382.66;;;-6.80;nan
2401;BME280;1211;43.200;27.914;2023-02-18T00:10:07;99298.00;;;-7.29;nan
2401;BME280;1211;43.200;27.914;2023-02-18T00:12:34;99241.59;;;-7.88;nan
2401;BME280;1211;43.200;27.914;2023-02-18T00:15:01;99191.31;;;-8.29;nan
2401;BME280;1211;43.200;27.914;2023-02-18T00:17:27;99337.41;;;-7.41;nan
2401;BME280;1211;43.200;27.914;2023-02-18T00:19:56;98848.66;;;-10.54;nan
2401;BME280;1211;43.200;27.914;2023-02-18T00:22:22;99088.66;;;-8.77;nan
2401;BME280;1211;43.200;27.914;2023-02-18T00:24:49;98938.19;;;-9.36;nan
2401;BME280;1211;43.200;27.914;2023-02-18T00:27:16;99019.34;;;-8.94;nan
2401;BME280;1211;43.200;27.914;2023-02-18T00:29:43;99306.25;;;-7.14;nan
2401;BME280;1211;43.200;27.914;2023-02-18T00:32:09;99109.84;;;-8.54;nan
2401;BME280;1211;43.200;27.914;2023-02-18T00:34:36;99214.91;;;-8.05;nan
2401;BME280;1211;43.200;27.914;2023-02-18T00:37:04;99142.41;;;-8.52;nan
2401;BME280;1211;43.200;27.914;2023-02-18T00:39:31;99208.34;;;-7.97;nan
2401;BME280;1211;43.200;27.914;2023-02-18T00:41:58;99232.28;;;-7.85;nan
2401;BME280;1211;43.200;27.914;2023-02-18T00:44:25;99195.97;;;-8.03;nan
2401;BME280;1211;43.200;27.914;2023-02-18T00:46:52;99033.88;;;-9.01;nan
2401;BME280;1211;43.200;27.914;2023-02-18T00:49:18;98803.34;;;-10.31;nan
2401;BME280;1211;43.200;27.914;2023-02-18T00:51:45;98843.72;;;-10.17;nan
2401;BME280;1211;43.200;27.914;2023-02-18T00:54:13;98806.44;;;-10.34;nan
2401;BME280;1211;43.200;27.914;2023-02-18T00:56:40;98824.97;;;-10.06;nan
2401;BME280;1211;43.200;27.914;2023-02-18T00:59:07;98975.09;;;-9.11;nan
2401;BME280;1211;43.200;27.914;2023-02-18T01:01:33;98801.13;;;-10.34;nan
2401;BME280;1211;43.200;27.914;2023-02-18T01:04:00;98879.31;;;-9.73;nan
2401;BME280;1211;43.200;27.914;2023-02-18T01:06:27;98616.47;;;-11.38;nan
2401;BME280;1211;43.200;27.914;2023-02-18T01:08:54;98703.53;;;-10.83;nan
2401;BME280;1211;43.200;27.914;2023-02-18T01:11:22;98515.00;;;-12.30;nan
2401;BME280;1211;43.200;27.914;2023-02-18T01:13:49;98703.59;;;-10.78;nan
2401;BME280;1211;43.200;27.914;2023-02-18T01:16:16;98567.63;;;-11.54;nan
2401;BME280;1211;43.200;27.914;2023-02-18T01:18:43;97508.25;;;-18.22;nan
2401;BME280;1211;43.200;27.914;2023-02-18T01:21:10;97488.22;;;-18.34;nan
2401;BME280;1211;43.200;27.914;2023-02-18T01:23:37;97823.94;;;-16.59;nan
2401;BME280;1211;43.200;27.914;2023-02-18T01:26:04;98605.09;;;-11.50;nan
2401;BME280;1211;43.200;27.914;2023-02-18T01:28:32;98263.72;;;-13.63;nan
2401;BME280;1211;43.200;27.914;2023-02-18T01:31:02;98181.25;;;-14.00;nan
2401;BME280;1211;43.200;27.914;2023-02-18T01:33:29;98233.69;;;-13.69;nan
2401;BME280;1211;43.200;27.914;2023-02-18T01:35:56;98382.78;;;-12.83;nan
2401;BME280;1211;43.200;27.914;2023-02-18T01:38:22;98386.34;;;-12.78;nan
2401;BME280;1211;43.200;27.914;2023-02-18T01:40:50;98523.06;;;-12.25;nan
2401;BME280;1211;43.200;27.914;2023-02-18T01:43:17;98421.19;;;-12.58;nan
2401;BME280;1211;43.200;27.914;2023-02-18T01:45:48;98405.88;;;-12.96;nan
2401;BME280;1211;43.200;27.914;2023-02-18T01:48:16;98434.25;;;-12.68;nan
2401;BME280;1211;43.200;27.914;2023-02-18T01:50:45;98519.16;;;-12.23;nan
2401;BME280;1211;43.200;27.914;2023-02-18T01:53:13;98525.06;;;-12.32;nan
2401;BME280;1211;43.200;27.914;2023-02-18T01:55:40;98180.56;;;-14.07;nan
2401;BME280;1211;43.200;27.914;2023-02-18T02:04:20;98304.63;;;-13.43;nan
2401;BME280;1211;43.200;27.914;2023-02-18T02:06:47;98292.44;;;-13.44;nan
2401;BME280;1211;43.200;27.914;2023-02-18T02:09:17;98272.13;;;-13.26;nan
2401;BME280;1211;43.200;27.914;2023-02-18T02:11:49;98340.31;;;-12.88;nan
2401;BME280;1211;43.200;27.914;2023-02-18T02:14:26;98304.09;;;-13.16;nan
2401;BME280;1211;43.200;27.914;2023-02-18T02:16:56;98408.97;;;-12.30;nan
2401;BME280;1211;43.200;27.914;2023-02-18T02:19:38;98399.94;;;-12.46;nan
2401;BME280;1211;43.200;27.914;2023-02-18T02:22:28;98318.44;;;-13.12;nan
2401;BME280;1211;43.200;27.914;2023-02-18T02:25:02;98255.06;;;-13.59;nan
2401;BME280;1211;43.200;27.914;2023-02-18T02:27:38;98291.06;;;-13.58;nan
2401;BME280;1211;43.200;27.914;2023-02-18T02:30:19;98239.19;;;-13.59;nan
2401;BME280;1211;43.200;27.914;2023-02-18T02:32:55;98215.38;;;-13.59;nan
2401;BME280;1211;43.200;27.914;2023-02-18T02:35:26;98316.03;;;-12.85;nan
2401;BME280;1211;43.200;27.914;2023-02-18T02:37:57;98627.41;;;-10.90;nan
2401;BME280;1211;43.200;27.914;2023-02-18T02:40:29;98246.41;;;-13.43;nan
2401;BME280;1211;43.200;27.914;2023-02-18T02:43:04;98531.13;;;-11.30;nan
2401;BME280;1211;43.200;27.914;2023-02-18T02:45:36;98391.84;;;-11.94;nan
2401;BME280;1211;43.200;27.914;2023-02-18T02:48:07;98266.84;;;-13.10;nan
2401;BME280;1211;43.200;27.914;2023-02-18T02:50:37;98004.63;;;-14.60;nan
2401;BME280;1211;43.200;27.914;2023-02-18T02:53:09;98110.03;;;-13.79;nan
2401;BME280;1211;43.200;27.914;2023-02-18T02:55:39;97895.06;;;-15.14;nan
2401;BME280;1211;43.200;27.914;2023-02-18T02:58:05;98146.69;;;-13.70;nan
2401;BME280;1211;43.200;27.914;2023-02-18T03:00:36;97901.00;;;-14.67;nan
2401;BME280;1211;43.200;27.914;2023-02-18T03:05:53;98184.22;;;-13.28;nan
2401;BME280;1211;43.200;27.914;2023-02-18T03:08:26;98173.63;;;-12.95;nan
2401;BME280;1211;43.200;27.914;2023-02-18T03:10:56;98104.88;;;-13.57;nan
2401;BME280;1211;43.200;27.914;2023-02-18T03:13:25;98121.34;;;-13.38;nan
2401;BME280;1211;43.200;27.914;2023-02-18T03:16:00;98384.03;;;-11.29;nan
2401;BME280;1211;43.200;27.914;2023-02-18T03:18:32;98055.34;;;-13.45;nan
2401;BME280;1211;43.200;27.914;2023-02-18T03:21:03;98291.06;;;-12.11;nan
2401;BME280;1211;43.200;27.914;2023-02-18T03:23:32;98183.34;;;-12.84;nan
2401;BME280;1211;43.200;27.914;2023-02-18T03:26:02;98003.47;;;-13.62;nan
2401;BME280;1211;43.200;27.914;2023-02-18T03:28:29;97814.22;;;-15.09;nan
2401;BME280;1211;43.200;27.914;2023-02-18T03:30:58;97992.16;;;-13.58;nan
2401;BME280;1211;43.200;27.914;2023-02-18T03:33:27;97951.47;;;-13.90;nan
2401;BME280;1211;43.200;27.914;2023-02-18T03:35:56;98164.47;;;-12.37;nan
2401;BME280;1211;43.200;27.914;2023-02-18T03:38:25;97985.75;;;-13.45;nan
2401;BME280;1211;43.200;27.914;2023-02-18T03:40:54;97705.53;;;-15.67;nan
2401;BME280;1211;43.200;27.914;2023-02-18T03:43:22;98097.75;;;-12.73;nan
2401;BME280;1211;43.200;27.914;2023-02-18T03:45:49;98407.84;;;-10.74;nan
2401;BME280;1211;43.200;27.914;2023-02-18T03:48:15;98567.91;;;-9.63;nan
2401;BME280;1211;43.200;27.914;2023-02-18T03:50:42;98825.13;;;-8.31;nan
2401;BME280;1211;43.200;27.914;2023-02-18T03:53:09;98744.13;;;-9.01;nan
2401;BME280;1211;43.200;27.914;2023-02-18T03:55:37;98591.53;;;-9.45;nan
2401;BME280;1211;43.200;27.914;2023-02-18T03:58:04;98709.47;;;-9.01;nan
2401;BME280;1211;43.200;27.914;2023-02-18T04:00:30;98676.94;;;-8.76;nan
2401;BME280;1211;43.200;27.914;2023-02-18T04:02:57;98587.28;;;-9.41;nan
2401;BME280;1211;43.200;27.914;2023-02-18T04:05:24;98762.22;;;-8.17;nan
2401;BME280;1211;43.200;27.914;2023-02-18T04:07:50;98537.25;;;-9.39;nan
2401;BME280;1211;43.200;27.914;2023-02-18T04:10:17;98795.38;;;-8.13;nan
2401;BME280;1211;43.200;27.914;2023-02-18T04:12:46;98507.31;;;-9.51;nan
2401;BME280;1211;43.200;27.914;2023-02-18T04:15:13;98559.59;;;-9.08;nan
2401;BME280;1211;43.200;27.914;2023-02-18T04:17:39;98819.03;;;-7.58;nan
2401;BME280;1211;43.200;27.914;2023-02-18T04:20:06;98835.53;;;-7.24;nan
2401;BME280;1211;43.200;27.914;2023-02-18T04:22:33;98945.00;;;-6.66;nan
2401;BME280;1211;43.200;27.914;2023-02-18T04:25:00;98903.59;;;-7.00;nan
2401;BME280;1211;43.200;27.914;2023-02-18T04:27:26;99149.38;;;-5.41;nan
2401;BME280;1211;43.200;27.914;2023-02-18T04:29:55;99129.75;;;-5.56;nan
2401;BME280;1211;43.200;27.914;2023-02-18T04:32:21;98769.00;;;-7.68;nan
2401;BME280;1211;43.200;27.914;2023-02-18T04:34:51;98940.28;;;-6.38;nan
2401;BME280;1211;43.200;27.914;2023-02-18T04:37:18;98522.00;;;-9.11;nan
2401;BME280;1211;43.200;27.914;2023-02-18T04:39:45;98738.78;;;-7.21;nan
2401;BME280;1211;43.200;27.914;2023-02-18T04:42:11;98904.53;;;-5.97;nan
2401;BME280;1211;43.200;27.914;2023-02-18T04:44:38;98843.69;;;-6.21;nan
2401;BME280;1211;43.200;27.914;2023-02-18T04:47:06;98753.88;;;-6.85;nan
2401;BME280;1211;43.200;27.914;2023-02-18T04:49:33;99217.03;;;-4.00;nan
2401;BME280;1211;43.200;27.914;2023-02-18T04:52:00;98919.28;;;-5.79;nan
2401;BME280;1211;43.200;27.914;2023-02-18T04:54:27;98913.94;;;-5.64;nan
2401;BME280;1211;43.200;27.914;2023-02-18T04:56:53;99145.53;;;-4.06;nan
2401;BME280;1211;43.200;27.914;2023-02-18T04:59:20;99197.56;;;-3.47;nan
2401;BME280;1211;43.200;27.914;2023-02-18T05:06:43;98502.41;;;-7.56;nan
2401;BME280;1211;43.200;27.914;2023-02-18T05:09:09;98476.22;;;-7.69;nan
2401;BME280;1211;43.200;27.914;2023-02-18T05:11:36;98487.97;;;-7.65;nan
2401;BME280;1211;43.200;27.914;2023-02-18T05:14:03;98492.50;;;-7.75;nan
2401;BME280;1211;43.200;27.914;2023-02-18T05:16:30;98618.50;;;-6.66;nan
2401;BME280;1211;43.200;27.914;2023-02-18T05:18:57;98407.28;;;-7.82;nan
2401;BME280;1211;43.200;27.914;2023-02-18T05:21:23;98477.31;;;-7.50;nan
2401;BME280;1211;43.200;27.914;2023-02-18T05:23:51;98491.19;;;-7.47;nan
2401;BME280;1211;43.200;27.914;2023-02-18T05:26:18;97985.13;;;-10.47;nan
2401;BME280;1211;43.200;27.914;2023-02-18T05:28:45;97950.69;;;-10.84;nan
2401;BME280;1211;43.200;27.914;2023-02-18T05:31:12;98453.00;;;-7.33;nan
2401;BME280;1211;43.200;27.914;2023-02-18T05:33:38;98454.84;;;-7.59;nan
2401;BME280;1211;43.200;27.914;2023-02-18T05:36:05;98063.59;;;-9.62;nan
2401;BME280;1211;43.200;27.914;2023-02-18T05:38:32;98305.81;;;-8.32;nan
2401;BME280;1211;43.200;27.914;2023-02-18T05:41:00;98271.38;;;-8.54;nan
2401;BME280;1211;43.200;27.914;2023-02-18T05:43:27;98179.88;;;-8.85;nan
2401;BME280;1211;43.200;27.914;2023-02-18T05:45:54;98581.28;;;-6.32;nan
2401;BME280;1211;43.200;27.914;2023-02-18T05:48:21;98341.03;;;-8.05;nan
2401;BME280;1211;43.200;27.914;2023-02-18T05:50:47;98145.47;;;-9.12;nan
2401;BME280;1211;43.200;27.914;2023-02-18T05:53:18;98911.28;;;-4.29;nan
2401;BME280;1211;43.200;27.914;2023-02-18T05:55:44;98961.09;;;-3.92;nan
2401;BME280;1211;43.200;27.914;2023-02-18T05:58:12;98106.28;;;-9.11;nan
2401;BME280;1211;43.200;27.914;2023-02-18T06:00:41;98334.38;;;-7.72;nan
2401;BME280;1211;43.200;27.914;2023-02-18T06:03:07;98195.28;;;-9.12;nan
2401;BME280;1211;43.200;27.914;2023-02-18T06:05:34;98256.69;;;-8.62;nan
2401;BME280;1211;43.200;27.914;2023-02-18T06:08:01;98257.00;;;-8.43;nan
2401;BME280;1211;43.200;27.914;2023-02-18T06:10:28;98258.84;;;-8.39;nan
2401;BME280;1211;43.200;27.914;2023-02-18T06:12:54;98645.66;;;-5.72;nan
2401;BME280;1211;43.200;27.914;2023-02-18T06:15:22;98294.59;;;-8.19;nan
2401;BME280;1211;43.200;27.914;2023-02-18T06:17:52;98511.00;;;-6.93;nan
2401;BME280;1211;43.200;27.914;2023-02-18T06:20:19;98302.59;;;-8.04;nan
2401;BME280;1211;43.200;27.914;2023-02-18T06:22:45;98628.00;;;-5.84;nan
2401;BME280;1211;43.200;27.914;2023-02-18T06:25:12;98436.09;;;-7.08;nan
2401;BME280;1211;43.200;27.914;2023-02-18T06:27:39;98532.06;;;-6.46;nan
2401;BME280;1211;43.200;27.914;2023-02-18T06:30:06;98731.66;;;-4.94;nan
2401;BME280;1211;43.200;27.914;2023-02-18T06:32:34;98709.16;;;-4.99;nan
2401;BME280;1211;43.200;27.914;2023-02-18T06:35:01;99422.34;;;-0.78;nan
2401;BME280;1211;43.200;27.914;2023-02-18T06:37:27;98872.97;;;-4.00;nan
2401;BME280;1211;43.200;27.914;2023-02-18T06:39:54;99384.56;;;-0.84;nan
2401;BME280;1211;43.200;27.914;2023-02-18T06:42:21;99147.22;;;-2.14;nan
2401;BME280;1211;43.200;27.914;2023-02-18T06:44:47;99201.22;;;-1.90;nan
2401;BME280;1211;43.200;27.914;2023-02-18T06:47:14;99208.69;;;-1.82;nan
2401;BME280;1211;43.200;27.914;2023-02-18T06:49:42;98932.09;;;-3.17;nan
2401;BME280;1211;43.200;27.914;2023-02-18T06:52:09;99338.97;;;-0.66;nan
2401;BME280;1211;43.200;27.914;2023-02-18T06:54:36;99386.88;;;-0.24;nan
2401;BME280;1211;43.200;27.914;2023-02-18T06:57:02;99576.44;;;0.93;nan
2401;BME280;1211;43.200;27.914;2023-02-18T06:59:29;99470.78;;;0.37;nan
2401;BME280;1211;43.200;27.914;2023-02-18T07:01:56;99842.81;;;2.64;nan
2401;BME280;1211;43.200;27.914;2023-02-18T07:04:23;99388.50;;;-0.05;nan
2401;BME280;1211;43.200;27.914;2023-02-18T07:06:51;99373.06;;;-0.04;nan
2401;BME280;1211;43.200;27.914;2023-02-18T07:09:17;99358.00;;;-0.10;nan
2401;BME280;1211;43.200;27.914;2023-02-18T07:11:44;99351.28;;;0.06;nan
2401;BME280;1211;43.200;27.914;2023-02-18T07:14:11;99389.09;;;0.30;nan
2401;BME280;1211;43.200;27.914;2023-02-18T07:16:37;99751.84;;;2.88;nan
2401;BME280;1211;43.200;27.914;2023-02-18T07:19:04;99901.22;;;3.58;nan
2401;BME280;1211;43.200;27.914;2023-02-18T07:21:31;99587.09;;;1.92;nan
2401;BME280;1211;43.200;27.914;2023-02-18T07:23:59;99773.41;;;3.12;nan
2401;BME280;1211;43.200;27.914;2023-02-18T07:26:26;99756.09;;;3.08;nan
2401;BME280;1211;43.200;27.914;2023-02-18T07:28:53;99293.31;;;-0.07;nan
2401;BME280;1211;43.200;27.914;2023-02-18T07:31:19;99863.50;;;3.65;nan
2401;BME280;1211;43.200;27.914;2023-02-18T07:33:46;99836.69;;;3.04;nan
2401;BME280;1211;43.200;27.914;2023-02-18T07:36:13;99494.06;;;0.75;nan
2401;BME280;1211;43.200;27.914;2023-02-18T07:38:39;99616.59;;;1.29;nan
2401;BME280;1211;43.200;27.914;2023-02-18T07:41:10;98784.66;;;-3.83;nan
2401;BME280;1211;43.200;27.914;2023-02-18T07:43:37;99494.25;;;0.41;nan
2401;BME280;1211;43.200;27.914;2023-02-18T07:46:04;99376.50;;;0.02;nan
2401;BME280;1211;43.200;27.914;2023-02-18T07:48:31;99600.41;;;1.42;nan
2401;BME280;1211;43.200;27.914;2023-02-18T07:50:58;99353.84;;;-0.03;nan
2401;BME280;1211;43.200;27.914;2023-02-18T07:53:24;99370.50;;;0.42;nan
2401;BME280;1211;43.200;27.914;2023-02-18T07:55:51;99029.06;;;-1.64;nan
2401;BME280;1211;43.200;27.914;2023-02-18T07:58:20;99412.38;;;1.01;nan
2401;BME280;1211;43.200;27.914;2023-02-18T08:00:47;99688.59;;;3.10;nan
2401;BME280;1211;43.200;27.914;2023-02-18T08:03:14;98606.47;;;-4.12;nan
2401;BME280;1211;43.200;27.914;2023-02-18T08:05:41;98369.78;;;-5.93;nan
2401;BME280;1211;43.200;27.914;2023-02-18T08:08:09;99533.78;;;1.82;nan
2401;BME280;1211;43.200;27.914;2023-02-18T08:10:37;99671.50;;;2.69;nan
2401;BME280;1211;43.200;27.914;2023-02-18T08:13:04;99189.56;;;-0.34;nan
2401;BME280;1211;43.200;27.914;2023-02-18T08:15:32;99012.09;;;-1.46;nan
2401;BME280;1211;43.200;27.914;2023-02-18T08:17:59;99518.72;;;1.76;nan
2401;BME280;1211;43.200;27.914;2023-02-18T08:20:26;99314.59;;;1.11;nan
2401;BME280;1211;43.200;27.914;2023-02-18T08:22:52;98633.94;;;-2.83;nan
2401;BME280;1211;43.200;27.914;2023-02-18T08:25:19;98599.38;;;-2.95;nan
2401;BME280;1211;43.200;27.914;2023-02-18T08:27:46;98992.06;;;-0.43;nan
2401;BME280;1211;43.200;27.914;2023-02-18T08:30:13;99259.75;;;1.41;nan
2401;BME280;1211;43.200;27.914;2023-02-18T08:32:41;99314.66;;;1.88;nan
2401;BME280;1211;43.200;27.914;2023-02-18T08:35:08;99440.19;;;2.57;nan
2401;BME280;1211;43.200;27.914;2023-02-18T08:37:35;99158.75;;;1.22;nan
2401;BME280;1211;43.200;27.914;2023-02-18T08:40:02;99492.84;;;2.83;nan
2401;BME280;1211;43.200;27.914;2023-02-18T08:42:30;97972.06;;;-6.67;nan
2401;BME280;1211;43.200;27.914;2023-02-18T08:44:56;99059.66;;;0.17;nan
2401;BME280;1211;43.200;27.914;2023-02-18T08:47:23;99211.88;;;1.23;nan
2401;BME280;1211;43.200;27.914;2023-02-18T08:49:52;99714.78;;;4.67;nan
2401;BME280;1211;43.200;27.914;2023-02-18T08:52:19;99285.69;;;2.19;nan
2401;BME280;1211;43.200;27.914;2023-02-18T08:54:46;98871.47;;;-0.17;nan
2401;BME280;1211;43.200;27.914;2023-02-18T08:57:13;99653.66;;;5.08;nan
2401;BME280;1211;43.200;27.914;2023-02-18T08:59:40;99121.38;;;2.30;nan
2401;BME280;1211;43.200;27.914;2023-02-18T09:02:06;98927.00;;;1.42;nan
2401;BME280;1211;43.200;27.914;2023-02-18T09:04:33;98197.97;;;-3.48;nan
2401;BME280;1211;43.200;27.914;2023-02-18T09:07:01;98003.41;;;-4.34;nan
2401;BME280;1211;43.200;27.914;2023-02-18T09:09:28;98810.50;;;0.89;nan
2401;BME280;1211;43.200;27.914;2023-02-18T09:11:55;98687.22;;;0.07;nan
2401;BME280;1211;43.200;27.914;2023-02-18T09:14:22;98645.75;;;0.20;nan
2401;BME280;1211;43.200;27.914;2023-02-18T09:16:49;98526.53;;;-0.54;nan
2401;BME280;1211;43.200;27.914;2023-02-18T09:19:18;98427.03;;;-0.74;nan
2401;BME280;1211;43.200;27.914;2023-02-18T09:21:44;98336.84;;;-1.26;nan
2401;BME280;1211;43.200;27.914;2023-02-18T09:24:15;98407.25;;;-0.61;nan
2401;BME280;1211;43.200;27.914;2023-02-18T09:26:42;97615.63;;;-6.31;nan
2401;BME280;1211;43.200;27.914;2023-02-18T09:29:08;97868.69;;;-4.90;nan
2401;BME280;1211;43.200;27.914;2023-02-18T09:31:35;98528.69;;;0.46;nan
2401;BME280;1211;43.200;27.914;2023-02-18T09:34:03;97918.03;;;-3.51;nan
2401;BME280;1211;43.200;27.914;2023-02-18T09:36:31;98154.59;;;-1.94;nan
2401;BME280;1211;43.200;27.914;2023-02-18T09:38:58;99040.38;;;3.96;nan
2401;BME280;1211;43.200;27.914;2023-02-18T09:41:28;98590.09;;;1.19;nan
2401;BME280;1211;43.200;27.914;2023-02-18T09:43:56;98755.41;;;2.19;nan
2401;BME280;1211;43.200;27.914;2023-02-18T09:46:26;98627.75;;;1.20;nan
2401;BME280;1211;43.200;27.914;2023-02-18T09:48:54;98395.53;;;-0.48;nan
2401;BME280;1211;43.200;27.914;2023-02-18T09:51:21;97714.94;;;-4.33;nan
2401;BME280;1211;43.200;27.914;2023-02-18T09:53:47;97898.19;;;-3.64;nan
2401;BME280;1211;43.200;27.914;2023-02-18T09:56:15;98121.63;;;-1.91;nan
2401;BME280;1211;43.200;27.914;2023-02-18T09:58:44;97095.34;;;-8.18;nan
2401;BME280;1211;43.200;27.914;2023-02-18T10:01:14;98379.59;;;0.08;nan
2401;BME280;1211;43.200;27.914;2023-02-18T10:03:44;98083.25;;;-2.19;nan
2401;BME280;1211;43.200;27.914;2023-02-18T10:06:11;97836.22;;;-3.59;nan
2401;BME280;1211;43.200;27.914;2023-02-18T10:08:42;97907.44;;;-3.03;nan
2401;BME280;1211;43.200;27.914;2023-02-18T10:11:10;98381.34;;;0.21;nan
2401;BME280;1211;43.200;27.914;2023-02-18T10:13:41;98467.50;;;1.13;nan
2401;BME280;1211;43.200;27.914;2023-02-18T10:16:09;99055.44;;;4.69;nan
2401;BME280;1211;43.200;27.914;2023-02-18T10:18:41;98809.25;;;2.98;nan
2401;BME280;1211;43.200;27.914;2023-02-18T10:21:09;98493.34;;;0.94;nan
2401;BME280;1211;43.200;27.914;2023-02-18T10:23:37;98290.31;;;-0.01;nan
2401;BME280;1211;43.200;27.914;2023-02-18T10:26:06;98238.75;;;-0.48;nan
2401;BME280;1211;43.200;27.914;2023-02-18T10:28:35;98009.38;;;-2.18;nan
2401;BME280;1211;43.200;27.914;2023-02-18T10:31:04;97009.28;;;-7.88;nan
2401;BME280;1211;43.200;27.914;2023-02-18T10:33:38;98614.22;;;2.19;nan
2401;BME280;1211;43.200;27.914;2023-02-18T10:36:16;98379.22;;;0.87;nan
2401;BME280;1211;43.200;27.914;2023-02-18T10:38:51;97387.72;;;-5.58;nan
2401;BME280;1211;43.200;27.914;2023-02-18T10:41:24;97512.50;;;-5.07;nan
2401;BME280;1211;43.200;27.914;2023-02-18T10:43:56;97779.91;;;-3.24;nan
2401;BME280;1211;43.200;27.914;2023-02-18T10:49:02;97748.22;;;-2.88;nan
2401;BME280;1211;43.200;27.914;2023-02-18T10:51:30;97676.09;;;-3.34;nan
2401;BME280;1211;43.200;27.914;2023-02-18T10:53:58;97713.41;;;-3.33;nan
2401;BME280;1211;43.200;27.914;2023-02-18T10:58:51;97371.84;;;-5.23;nan
2401;BME280;1211;43.200;27.914;2023-02-18T11:01:26;98278.97;;;0.40;nan
2401;BME280;1211;43.200;27.914;2023-02-18T11:04:04;98117.09;;;-0.39;nan
2401;BME280;1211;43.200;27.914;2023-02-18T11:06:36;97603.38;;;-3.60;nan
2401;BME280;1211;43.200;27.914;2023-02-18T11:09:04;97337.31;;;-4.77;nan
2401;BME280;1211;43.200;27.914;2023-02-18T11:13:58;98308.28;;;1.02;nan
2401;BME280;1211;43.200;27.914;2023-02-18T11:16:35;98638.09;;;3.01;nan
2401;BME280;1211;43.200;27.914;2023-02-18T11:19:02;98645.78;;;4.15;nan
2401;BME280;1211;43.200;27.914;2023-02-18T11:21:31;98598.34;;;3.71;nan
2401;BME280;1211;43.200;27.914;2023-02-18T11:24:05;97999.25;;;-0.31;nan
2401;BME280;1211;43.200;27.914;2023-02-18T11:26:32;98088.25;;;0.29;nan
2401;BME280;1211;43.200;27.914;2023-02-18T11:29:00;98305.91;;;1.38;nan
2401;BME280;1211;43.200;27.914;2023-02-18T11:31:33;97147.59;;;-6.24;nan
2401;BME280;1211;43.200;27.914;2023-02-18T11:34:03;98200.44;;;0.87;nan
2401;BME280;1211;43.200;27.914;2023-02-18T11:36:31;97469.38;;;-2.98;nan
2401;BME280;1211;43.200;27.914;2023-02-18T11:38:59;97559.75;;;-3.05;nan
2401;BME280;1211;43.200;27.914;2023-02-18T11:43:57;97871.59;;;-0.75;nan
2401;BME280;1211;43.200;27.914;2023-02-18T11:46:24;98729.28;;;4.65;nan
2401;BME280;1211;43.200;27.914;2023-02-18T11:48:52;98784.09;;;5.08;nan
2401;BME280;1211;43.200;27.914;2023-02-18T11:51:20;99063.16;;;7.41;nan
2401;BME280;1211;43.200;27.914;2023-02-18T11:53:58;98668.06;;;4.74;nan
2401;BME280;1211;43.200;27.914;2023-02-18T11:56:26;98499.91;;;3.57;nan
2401;BME280;1211;43.200;27.914;2023-02-18T11:58:53;98638.63;;;5.04;nan
2401;BME280;1211;43.200;27.914;2023-02-18T12:01:26;98742.47;;;5.60;nan
2401;BME280;1211;43.200;27.914;2023-02-18T12:03:55;99144.53;;;8.08;nan
2401;BME280;1211;43.200;27.914;2023-02-18T12:06:25;98957.66;;;6.51;nan
2401;BME280;1211;43.200;27.914;2023-02-18T12:08:54;98958.91;;;6.66;nan
2401;BME280;1211;43.200;27.914;2023-02-18T12:11:24;99341.47;;;9.14;nan
2401;BME280;1211;43.200;27.914;2023-02-18T12:13:55;99016.53;;;6.85;nan
2401;BME280;1211;43.200;27.914;2023-02-18T12:16:23;98986.94;;;6.63;nan
2401;BME280;1211;43.200;27.914;2023-02-18T12:18:55;98752.97;;;5.21;nan
2401;BME280;1211;43.200;27.914;2023-02-18T12:21:29;98695.09;;;4.79;nan
2401;BME280;1211;43.200;27.914;2023-02-18T12:24:00;97948.19;;;0.05;nan
2401;BME280;1211;43.200;27.914;2023-02-18T12:26:32;97069.13;;;-5.94;nan
2401;BME280;1211;43.200;27.914;2023-02-18T12:29:16;97211.31;;;-5.08;nan
2401;BME280;1211;43.200;27.914;2023-02-18T12:31:56;97343.47;;;-3.30;nan
2401;BME280;1211;43.200;27.914;2023-02-18T12:34:32;97562.41;;;-2.07;nan
2401;BME280;1211;43.200;27.914;2023-02-18T12:37:06;97368.84;;;-3.74;nan
2401;BME280;1211;43.200;27.914;2023-02-18T12:49:24;97682.28;;;-1.96;nan
2401;BME280;1211;43.200;27.914;2023-02-18T12:52:00;97209.41;;;-5.16;nan
2401;BME280;1211;43.200;27.914;2023-02-18T12:57:12;97058.09;;;-5.92;nan
2401;BME280;1211;43.200;27.914;2023-02-18T12:59:55;97192.88;;;-4.92;nan
2401;BME280;1211;43.200;27.914;2023-02-18T13:02:31;96264.50;;;-10.78;nan
2401;BME280;1211;43.200;27.914;2023-02-18T13:05:03;97483.81;;;-3.37;nan
2401;BME280;1211;43.200;27.914;2023-02-18T13:07:39;97522.22;;;-2.93;nan
2401;BME280;1211;43.200;27.914;2023-02-18T13:10:33;97069.91;;;-5.85;nan
2401;BME280;1211;43.200;27.914;2023-02-18T13:17:57;98939.03;;;6.17;nan
2401;BME280;1211;43.200;27.914;2023-02-18T13:20:28;98923.09;;;5.95;nan
2401;BME280;1211;43.200;27.914;2023-02-18T13:23:00;98753.69;;;4.73;nan
2401;BME280;1211;43.200;27.914;2023-02-18T13:25:27;98597.31;;;3.96;nan
2401;BME280;1211;43.200;27.914;2023-02-18T13:27:57;98776.97;;;5.16;nan
2401;BME280;1211;43.200;27.914;2023-02-18T13:30:32;99011.47;;;6.59;nan
2401;BME280;1211;43.200;27.914;2023-02-18T13:33:05;98895.31;;;5.80;nan
2401;BME280;1211;43.200;27.914;2023-02-18T13:35:37;98808.78;;;5.12;nan
2401;BME280;1211;43.200;27.914;2023-02-18T13:38:15;98392.72;;;2.38;nan
2401;BME280;1211;43.200;27.914;2023-02-18T13:40:46;98897.06;;;5.40;nan
2401;BME280;1211;43.200;27.914;2023-02-18T13:43:18;98982.75;;;6.17;nan
2401;BME280;1211;43.200;27.914;2023-02-18T13:46:00;98803.13;;;5.29;nan
2401;BME280;1211;43.200;27.914;2023-02-18T13:48:27;98879.13;;;5.63;nan
2401;BME280;1211;43.200;27.914;2023-02-18T13:50:56;98948.09;;;5.85;nan
2401;BME280;1211;43.200;27.914;2023-02-18T13:53:30;99021.03;;;6.17;nan
2401;BME280;1211;43.200;27.914;2023-02-18T13:55:59;98234.22;;;1.18;nan
2401;BME280;1211;43.200;27.914;2023-02-18T13:58:29;98212.50;;;0.60;nan
2401;BME280;1211;43.200;27.914;2023-02-18T14:00:59;98858.47;;;4.84;nan
2401;BME280;1211;43.200;27.914;2023-02-18T14:03:34;98547.66;;;2.92;nan
2401;BME280;1211;43.200;27.914;2023-02-18T14:06:12;99240.47;;;6.95;nan
2401;BME280;1211;43.200;27.914;2023-02-18T14:08:40;100099.91;;;12.53;nan
2401;BME280;1211;43.200;27.914;2023-02-18T14:13:53;99609.91;;;9.41;nan
2401;BME280;1211;43.200;27.914;2023-02-18T14:16:20;99687.69;;;10.10;nan
2401;BME280;1211;43.200;27.914;2023-02-18T14:18:53;99564.03;;;9.18;nan
2401;BME280;1211;43.200;27.914;2023-02-18T14:21:22;100087.44;;;12.43;nan
2401;BME280;1211;43.200;27.914;2023-02-18T14:24:02;101136.94;;;18.95;nan
2401;BME280;1211;43.200;27.914;2023-02-18T14:26:31;101141.03;;;19.01;nan